CYEG

Edmonton International Airport

Edmonton, Alberta, Canada
METAR CYEG 201500Z 29007KT 15SM -SN FEW028 BKN038 BKN220 M15/M20 A3000 RMK SC1SC6CI1 CI TR SLP223
Observed Flight Rules
Feb-20 @ 15:00 UTC (22 hours ago) Visual Flight Rules
Wind Visibility Clouds Conditions
290° at 7 knots 15 miles
  • Few at 2,800' AGL
  • Broken at 3,800' AGL
  • Broken at 22,000' AGL
  • Light Snow
Temperatures Readings
Current -15°C / 5°F
Dewpoint -20°C / -4°F
Humidity 66%
Altimeter 30" Hg
Pressure 1022.3 hPa
Elevation 723
METAR CYEG 201500Z 29007KT 15SM -SN FEW028 BKN038 BKN220 M15/M20 A3000 RMK SC1SC6CI1 CI TR SLP223
Observed Flight Rules
Feb-20 @ 15:00 UTC
(22 hours ago)
VFR
Wind Visibility
290° at 7 knots 15 miles
Clouds
  • Few at 2,800' AGL
  • Broken at 3,800' AGL
  • Broken at 22,000' AGL
Conditions
  • Light Snow
Temperature Dewpoint
-15°C / 5°F -20°C / -4°F
Humidity Altimeter Pressure
66% 30" Hg 1022.3 hPa